sensor_id;sensor_type;location;lat;lon;timestamp;pressure;altitude;pressure_sealevel;temperature;humidity
45211;BME280;30952;50.102;8.584;2022-10-03T00:03:21;100600.0;;;23.2;37.2
45211;BME280;30952;50.102;8.584;2022-10-03T00:08:11;100610.0;;;23.2;37.2
45211;BME280;30952;50.102;8.584;2022-10-03T00:13:11;100600.0;;;23.2;37.2
45211;BME280;30952;50.102;8.584;2022-10-03T00:18:14;100600.0;;;23.2;37.1
45211;BME280;30952;50.102;8.584;2022-10-03T00:23:09;100610.0;;;23.0;37.1
45211;BME280;30952;50.102;8.584;2022-10-03T00:28:14;100610.0;;;23.1;37.1
45211;BME280;30952;50.102;8.584;2022-10-03T00:33:15;100600.0;;;23.2;37.0
45211;BME280;30952;50.102;8.584;2022-10-03T00:38:16;100600.0;;;23.1;37.1
45211;BME280;30952;50.102;8.584;2022-10-03T00:48:48;100600.0;;;23.1;37.1
45211;BME280;30952;50.102;8.584;2022-10-03T00:53:19;100600.0;;;23.1;37.1
45211;BME280;30952;50.102;8.584;2022-10-03T00:58:21;100600.0;;;23.1;37.1
45211;BME280;30952;50.102;8.584;2022-10-03T01:03:18;100610.0;;;23.1;37.1
45211;BME280;30952;50.102;8.584;2022-10-03T01:08:20;100620.0;;;23.1;37.1
45211;BME280;30952;50.102;8.584;2022-10-03T01:13:18;100620.0;;;23.2;37.1
45211;BME280;30952;50.102;8.584;2022-10-03T01:18:15;100640.0;;;23.1;37.1
45211;BME280;30952;50.102;8.584;2022-10-03T01:23:25;100640.0;;;23.1;37.1
45211;BME280;30952;50.102;8.584;2022-10-03T01:28:36;100640.0;;;23.1;37.1
45211;BME280;30952;50.102;8.584;2022-10-03T01:33:12;100640.0;;;23.1;37.1
45211;BME280;30952;50.102;8.584;2022-10-03T01:38:19;100640.0;;;23.1;37.0
45211;BME280;30952;50.102;8.584;2022-10-03T01:43:14;100650.0;;;23.1;37.0
45211;BME280;30952;50.102;8.584;2022-10-03T01:48:13;100650.0;;;23.1;37.0
45211;BME280;30952;50.102;8.584;2022-10-03T01:53:13;100660.0;;;23.1;37.0
45211;BME280;30952;50.102;8.584;2022-10-03T01:58:12;100670.0;;;23.1;37.0
45211;BME280;30952;50.102;8.584;2022-10-03T02:03:16;100670.0;;;23.1;37.0
45211;BME280;30952;50.102;8.584;2022-10-03T02:08:22;100670.0;;;23.1;37.0
45211;BME280;30952;50.102;8.584;2022-10-03T02:13:13;100680.0;;;23.1;37.0
45211;BME280;30952;50.102;8.584;2022-10-03T02:18:14;100680.0;;;23.1;37.0
45211;BME280;30952;50.102;8.584;2022-10-03T02:23:24;100670.0;;;23.1;37.0
45211;BME280;30952;50.102;8.584;2022-10-03T02:28:26;100680.0;;;23.1;37.0
45211;BME280;30952;50.102;8.584;2022-10-03T02:38:25;100680.0;;;23.1;36.9
45211;BME280;30952;50.102;8.584;2022-10-03T02:53:46;100680.0;;;23.0;36.9
45211;BME280;30952;50.102;8.584;2022-10-03T02:58:30;100690.0;;;23.0;36.9
45211;BME280;30952;50.102;8.584;2022-10-03T03:03:29;100690.0;;;23.0;36.9
45211;BME280;30952;50.102;8.584;2022-10-03T03:08:31;100700.0;;;23.0;36.9
45211;BME280;30952;50.102;8.584;2022-10-03T03:13:35;100700.0;;;23.0;36.9
45211;BME280;30952;50.102;8.584;2022-10-03T03:18:21;100710.0;;;23.0;36.9
45211;BME280;30952;50.102;8.584;2022-10-03T03:23:28;100710.0;;;23.0;36.9
45211;BME280;30952;50.102;8.584;2022-10-03T03:28:23;100710.0;;;23.0;36.9
45211;BME280;30952;50.102;8.584;2022-10-03T03:33:25;100720.0;;;23.0;36.9
45211;BME280;30952;50.102;8.584;2022-10-03T03:38:23;100720.0;;;23.0;36.9
45211;BME280;30952;50.102;8.584;2022-10-03T03:43:25;100720.0;;;23.0;36.9
45211;BME280;30952;50.102;8.584;2022-10-03T03:48:28;100720.0;;;23.0;36.9
45211;BME280;30952;50.102;8.584;2022-10-03T03:53:30;100720.0;;;23.0;36.9
45211;BME280;30952;50.102;8.584;2022-10-03T03:58:24;100730.0;;;23.0;36.8
45211;BME280;30952;50.102;8.584;2022-10-03T04:03:25;100740.0;;;22.9;36.8
45211;BME280;30952;50.102;8.584;2022-10-03T04:08:29;100730.0;;;22.9;36.8
45211;BME280;30952;50.102;8.584;2022-10-03T04:13:27;100740.0;;;22.9;36.8
45211;BME280;30952;50.102;8.584;2022-10-03T04:18:26;100740.0;;;22.9;36.8
45211;BME280;30952;50.102;8.584;2022-10-03T04:23:28;100750.0;;;22.9;36.8
45211;BME280;30952;50.102;8.584;2022-10-03T04:28:29;100750.0;;;22.9;36.8
45211;BME280;30952;50.102;8.584;2022-10-03T04:33:26;100750.0;;;22.9;36.8
45211;BME280;30952;50.102;8.584;2022-10-03T04:38:21;100760.0;;;22.9;36.8
45211;BME280;30952;50.102;8.584;2022-10-03T04:43:24;100760.0;;;22.9;36.8
45211;BME280;30952;50.102;8.584;2022-10-03T04:48:23;100760.0;;;22.9;36.8
45211;BME280;30952;50.102;8.584;2022-10-03T04:53:22;100760.0;;;22.9;36.8
45211;BME280;30952;50.102;8.584;2022-10-03T04:58:27;100760.0;;;22.9;36.8
45211;BME280;30952;50.102;8.584;2022-10-03T05:03:25;100760.0;;;22.9;36.7
45211;BME280;30952;50.102;8.584;2022-10-03T05:08:27;100760.0;;;22.9;36.8
45211;BME280;30952;50.102;8.584;2022-10-03T05:13:27;100750.0;;;22.9;36.8
45211;BME280;30952;50.102;8.584;2022-10-03T05:18:21;100760.0;;;22.9;36.7
45211;BME280;30952;50.102;8.584;2022-10-03T05:23:24;100770.0;;;22.9;36.7
45211;BME280;30952;50.102;8.584;2022-10-03T05:28:27;100760.0;;;22.9;36.7
45211;BME280;30952;50.102;8.584;2022-10-03T05:33:25;100780.0;;;22.9;36.7
45211;BME280;30952;50.102;8.584;2022-10-03T05:38:43;100780.0;;;22.9;36.7
45211;BME280;30952;50.102;8.584;2022-10-03T05:43:28;100780.0;;;22.9;36.7
45211;BME280;30952;50.102;8.584;2022-10-03T05:48:30;100780.0;;;22.8;36.7
45211;BME280;30952;50.102;8.584;2022-10-03T05:53:32;100790.0;;;22.8;36.7
45211;BME280;30952;50.102;8.584;2022-10-03T05:58:34;100780.0;;;22.8;36.7
45211;BME280;30952;50.102;8.584;2022-10-03T06:03:36;100790.0;;;22.9;36.7
45211;BME280;30952;50.102;8.584;2022-10-03T06:13:25;100770.0;;;22.8;36.7
45211;BME280;30952;50.102;8.584;2022-10-03T06:18:49;100780.0;;;22.8;36.7
45211;BME280;30952;50.102;8.584;2022-10-03T06:23:36;100790.0;;;22.8;36.7
45211;BME280;30952;50.102;8.584;2022-10-03T06:28:47;100780.0;;;22.8;36.6
45211;BME280;30952;50.102;8.584;2022-10-03T06:43:43;100800.0;;;22.8;36.6
45211;BME280;30952;50.102;8.584;2022-10-03T06:48:54;100810.0;;;22.8;36.6
45211;BME280;30952;50.102;8.584;2022-10-03T06:53:32;100810.0;;;22.7;36.6
45211;BME280;30952;50.102;8.584;2022-10-03T06:58:43;100820.0;;;22.8;36.6
45211;BME280;30952;50.102;8.584;2022-10-03T07:08:38;100830.0;;;22.7;36.6
45211;BME280;30952;50.102;8.584;2022-10-03T07:13:34;100830.0;;;22.7;36.6
45211;BME280;30952;50.102;8.584;2022-10-03T07:28:55;100830.0;;;22.6;36.5
45211;BME280;30952;50.102;8.584;2022-10-03T07:33:40;100830.0;;;22.6;36.5
45211;BME280;30952;50.102;8.584;2022-10-03T07:38:38;100840.0;;;22.6;36.5
45211;BME280;30952;50.102;8.584;2022-10-03T07:43:43;100850.0;;;22.5;36.5
45211;BME280;30952;50.102;8.584;2022-10-03T07:48:51;100850.0;;;22.6;36.6
45211;BME280;30952;50.102;8.584;2022-10-03T07:53:38;100860.0;;;22.4;36.5
45211;BME280;30952;50.102;8.584;2022-10-03T07:58:35;100860.0;;;22.4;36.6
45211;BME280;30952;50.102;8.584;2022-10-03T08:03:44;100870.0;;;22.4;36.6
45211;BME280;30952;50.102;8.584;2022-10-03T08:08:39;100870.0;;;22.5;36.6
45211;BME280;30952;50.102;8.584;2022-10-03T08:13:30;100870.0;;;22.4;36.6
45211;BME280;30952;50.102;8.584;2022-10-03T08:23:34;100870.0;;;22.1;36.7
45211;BME280;30952;50.102;8.584;2022-10-03T08:28:36;100880.0;;;22.3;36.8
45211;BME280;30952;50.102;8.584;2022-10-03T08:33:36;100880.0;;;22.4;36.8
45211;BME280;30952;50.102;8.584;2022-10-03T08:38:39;100880.0;;;22.2;36.8
45211;BME280;30952;50.102;8.584;2022-10-03T08:43:46;100880.0;;;22.0;36.8
45211;BME280;30952;50.102;8.584;2022-10-03T08:53:38;100880.0;;;22.2;36.9
45211;BME280;30952;50.102;8.584;2022-10-03T08:58:41;100890.0;;;22.4;36.9
45211;BME280;30952;50.102;8.584;2022-10-03T09:08:40;100880.0;;;21.9;36.7
45211;BME280;30952;50.102;8.584;2022-10-03T09:24:30;100880.0;;;22.4;36.8
45211;BME280;30952;50.102;8.584;2022-10-03T09:28:39;100880.0;;;22.3;36.6
45211;BME280;30952;50.102;8.584;2022-10-03T09:43:41;100870.0;;;22.3;36.2
45211;BME280;30952;50.102;8.584;2022-10-03T09:48:32;100870.0;;;22.2;36.1
45211;BME280;30952;50.102;8.584;2022-10-03T09:53:38;100880.0;;;22.4;36.3
45211;BME280;30952;50.102;8.584;2022-10-03T09:58:38;100870.0;;;22.2;36.2
45211;BME280;30952;50.102;8.584;2022-10-03T10:08:35;100880.0;;;22.4;36.4
45211;BME280;30952;50.102;8.584;2022-10-03T10:23:36;100870.0;;;22.6;36.8
45211;BME280;30952;50.102;8.584;2022-10-03T10:28:45;100860.0;;;22.6;36.7
45211;BME280;30952;50.102;8.584;2022-10-03T11:03:55;100860.0;;;22.8;37.3
45211;BME280;30952;50.102;8.584;2022-10-03T11:08:54;100860.0;;;22.8;36.9
45211;BME280;30952;50.102;8.584;2022-10-03T11:14:04;100860.0;;;22.9;36.6
45211;BME280;30952;50.102;8.584;2022-10-03T11:38:29;100840.0;;;23.0;35.6
45211;BME280;30952;50.102;8.584;2022-10-03T11:48:37;100850.0;;;23.2;35.2
45211;BME280;30952;50.102;8.584;2022-10-03T11:53:38;100850.0;;;23.2;35.2
45211;BME280;30952;50.102;8.584;2022-10-03T11:58:34;100840.0;;;23.2;35.2
45211;BME280;30952;50.102;8.584;2022-10-03T12:03:29;100830.0;;;23.2;35.2
45211;BME280;30952;50.102;8.584;2022-10-03T12:08:30;100840.0;;;23.2;35.1
45211;BME280;30952;50.102;8.584;2022-10-03T12:13:34;100840.0;;;23.2;35.3
45211;BME280;30952;50.102;8.584;2022-10-03T12:18:48;100840.0;;;23.2;35.4
45211;BME280;30952;50.102;8.584;2022-10-03T12:23:42;100820.0;;;23.3;35.3
45211;BME280;30952;50.102;8.584;2022-10-03T12:28:34;100820.0;;;23.2;35.0
45211;BME280;30952;50.102;8.584;2022-10-03T12:33:45;100810.0;;;22.9;34.5
45211;BME280;30952;50.102;8.584;2022-10-03T12:38:39;100810.0;;;23.1;34.7
45211;BME280;30952;50.102;8.584;2022-10-03T12:43:41;100810.0;;;23.1;34.8
45211;BME280;30952;50.102;8.584;2022-10-03T12:48:38;100800.0;;;23.1;34.6
45211;BME280;30952;50.102;8.584;2022-10-03T12:53:33;100810.0;;;23.1;34.6
45211;BME280;30952;50.102;8.584;2022-10-03T12:58:37;100810.0;;;23.2;34.6
45211;BME280;30952;50.102;8.584;2022-10-03T13:03:35;100800.0;;;23.2;34.7
45211;BME280;30952;50.102;8.584;2022-10-03T13:08:41;100790.0;;;23.0;34.6
45211;BME280;30952;50.102;8.584;2022-10-03T13:13:34;100800.0;;;23.1;34.8
45211;BME280;30952;50.102;8.584;2022-10-03T13:18:41;100800.0;;;23.2;35.5
45211;BME280;30952;50.102;8.584;2022-10-03T13:23:39;100790.0;;;23.2;35.2
45211;BME280;30952;50.102;8.584;2022-10-03T13:28:34;100790.0;;;23.2;34.9
45211;BME280;30952;50.102;8.584;2022-10-03T13:33:32;100790.0;;;23.2;34.5
45211;BME280;30952;50.102;8.584;2022-10-03T13:38:48;100790.0;;;23.2;34.6
45211;BME280;30952;50.102;8.584;2022-10-03T13:43:32;100790.0;;;23.2;35.2
45211;BME280;30952;50.102;8.584;2022-10-03T13:48:31;100800.0;;;23.3;34.8
45211;BME280;30952;50.102;8.584;2022-10-03T13:53:44;100790.0;;;23.4;34.6
45211;BME280;30952;50.102;8.584;2022-10-03T13:58:39;100780.0;;;23.4;34.4
45211;BME280;30952;50.102;8.584;2022-10-03T14:03:39;100790.0;;;23.2;33.9
45211;BME280;30952;50.102;8.584;2022-10-03T14:09:10;100780.0;;;23.1;33.7
45211;BME280;30952;50.102;8.584;2022-10-03T14:13:42;100780.0;;;23.2;34.0
45211;BME280;30952;50.102;8.584;2022-10-03T14:18:40;100780.0;;;23.2;33.9
45211;BME280;30952;50.102;8.584;2022-10-03T14:23:35;100770.0;;;23.1;33.7
45211;BME280;30952;50.102;8.584;2022-10-03T14:28:36;100780.0;;;22.9;33.8
45211;BME280;30952;50.102;8.584;2022-10-03T14:33:40;100780.0;;;23.1;33.7
45211;BME280;30952;50.102;8.584;2022-10-03T14:38:47;100780.0;;;23.0;33.5
45211;BME280;30952;50.102;8.584;2022-10-03T14:43:38;100780.0;;;22.8;33.3
45211;BME280;30952;50.102;8.584;2022-10-03T14:48:36;100780.0;;;22.6;32.8
45211;BME280;30952;50.102;8.584;2022-10-03T14:53:32;100780.0;;;22.5;32.6
45211;BME280;30952;50.102;8.584;2022-10-03T14:58:35;100780.0;;;22.5;32.4
45211;BME280;30952;50.102;8.584;2022-10-03T15:03:34;100780.0;;;22.7;32.4
45211;BME280;30952;50.102;8.584;2022-10-03T15:08:36;100770.0;;;22.6;32.3
45211;BME280;30952;50.102;8.584;2022-10-03T15:13:37;100770.0;;;22.6;32.3
45211;BME280;30952;50.102;8.584;2022-10-03T15:18:34;100760.0;;;22.8;32.4
45211;BME280;30952;50.102;8.584;2022-10-03T15:23:38;100760.0;;;22.8;32.5
45211;BME280;30952;50.102;8.584;2022-10-03T15:28:37;100750.0;;;22.9;32.6
45211;BME280;30952;50.102;8.584;2022-10-03T15:33:37;100750.0;;;22.8;32.7
45211;BME280;30952;50.102;8.584;2022-10-03T15:38:38;100750.0;;;22.9;32.8
45211;BME280;30952;50.102;8.584;2022-10-03T15:43:41;100760.0;;;23.0;33.0
45211;BME280;30952;50.102;8.584;2022-10-03T15:48:35;100750.0;;;22.9;33.1
45211;BME280;30952;50.102;8.584;2022-10-03T15:53:36;100750.0;;;22.9;33.1
45211;BME280;30952;50.102;8.584;2022-10-03T15:58:40;100750.0;;;22.9;33.2
45211;BME280;30952;50.102;8.584;2022-10-03T16:03:41;100750.0;;;22.9;33.3
45211;BME280;30952;50.102;8.584;2022-10-03T16:08:47;100750.0;;;22.9;33.3
45211;BME280;30952;50.102;8.584;2022-10-03T16:13:37;100750.0;;;22.8;33.5
45211;BME280;30952;50.102;8.584;2022-10-03T16:18:47;100740.0;;;22.8;33.5
45211;BME280;30952;50.102;8.584;2022-10-03T16:23:40;100740.0;;;22.8;33.6
45211;BME280;30952;50.102;8.584;2022-10-03T16:28:42;100740.0;;;22.7;33.7
45211;BME280;30952;50.102;8.584;2022-10-03T16:33:40;100730.0;;;22.7;33.7
45211;BME280;30952;50.102;8.584;2022-10-03T16:38:40;100740.0;;;22.6;33.7
45211;BME280;30952;50.102;8.584;2022-10-03T16:43:39;100740.0;;;22.6;33.9
45211;BME280;30952;50.102;8.584;2022-10-03T16:48:40;100740.0;;;22.5;34.0
45211;BME280;30952;50.102;8.584;2022-10-03T16:53:40;100740.0;;;22.4;34.3
45211;BME280;30952;50.102;8.584;2022-10-03T16:58:44;100730.0;;;22.4;34.5
45211;BME280;30952;50.102;8.584;2022-10-03T17:03:44;100720.0;;;22.2;34.6
45211;BME280;30952;50.102;8.584;2022-10-03T17:08:42;100710.0;;;22.2;34.7
45211;BME280;30952;50.102;8.584;2022-10-03T17:13:42;100710.0;;;22.1;34.8
45211;BME280;30952;50.102;8.584;2022-10-03T17:18:42;100720.0;;;21.9;35.0
45211;BME280;30952;50.102;8.584;2022-10-03T17:23:43;100710.0;;;21.9;35.2
45211;BME280;30952;50.102;8.584;2022-10-03T17:28:44;100720.0;;;22.0;35.3
45211;BME280;30952;50.102;8.584;2022-10-03T17:33:44;100710.0;;;21.9;35.4
45211;BME280;30952;50.102;8.584;2022-10-03T17:38:46;100710.0;;;21.9;35.4
45211;BME280;30952;50.102;8.584;2022-10-03T17:43:46;100710.0;;;21.8;35.5
45211;BME280;30952;50.102;8.584;2022-10-03T17:48:45;100710.0;;;21.8;35.7
45211;BME280;30952;50.102;8.584;2022-10-03T17:53:47;100710.0;;;21.6;35.8
45211;BME280;30952;50.102;8.584;2022-10-03T17:58:46;100710.0;;;21.6;35.9
45211;BME280;30952;50.102;8.584;2022-10-03T18:03:48;100710.0;;;21.6;36.0
45211;BME280;30952;50.102;8.584;2022-10-03T18:08:45;100720.0;;;21.4;36.2
45211;BME280;30952;50.102;8.584;2022-10-03T18:13:46;100720.0;;;21.3;36.2
45211;BME280;30952;50.102;8.584;2022-10-03T18:19:02;100720.0;;;21.2;36.3
45211;BME280;30952;50.102;8.584;2022-10-03T18:23:54;100720.0;;;21.9;36.4
45211;BME280;30952;50.102;8.584;2022-10-03T18:28:48;100720.0;;;22.1;36.5
45211;BME280;30952;50.102;8.584;2022-10-03T18:33:46;100720.0;;;22.2;36.5
45211;BME280;30952;50.102;8.584;2022-10-03T18:38:44;100710.0;;;22.4;36.7
45211;BME280;30952;50.102;8.584;2022-10-03T18:43:45;100700.0;;;22.4;36.7
45211;BME280;30952;50.102;8.584;2022-10-03T18:48:50;100700.0;;;22.5;36.7
45211;BME280;30952;50.102;8.584;2022-10-03T18:53:47;100710.0;;;22.6;36.7
45211;BME280;30952;50.102;8.584;2022-10-03T18:58:56;100700.0;;;22.6;36.7
45211;BME280;30952;50.102;8.584;2022-10-03T19:03:48;100700.0;;;22.6;36.7
45211;BME280;30952;50.102;8.584;2022-10-03T19:08:48;100710.0;;;22.7;36.7
45211;BME280;30952;50.102;8.584;2022-10-03T19:13:55;100700.0;;;22.7;36.7
45211;BME280;30952;50.102;8.584;2022-10-03T19:18:54;100700.0;;;22.8;36.7
45211;BME280;30952;50.102;8.584;2022-10-03T19:23:48;100690.0;;;22.8;36.7
45211;BME280;30952;50.102;8.584;2022-10-03T19:28:46;100700.0;;;22.8;36.7
45211;BME280;30952;50.102;8.584;2022-10-03T19:33:49;100690.0;;;22.8;36.7
45211;BME280;30952;50.102;8.584;2022-10-03T19:38:47;100700.0;;;22.8;36.7
45211;BME280;30952;50.102;8.584;2022-10-03T19:43:48;100680.0;;;22.8;36.7
45211;BME280;30952;50.102;8.584;2022-10-03T19:48:49;100680.0;;;22.9;36.7
45211;BME280;30952;50.102;8.584;2022-10-03T19:53:49;100690.0;;;22.9;36.7
45211;BME280;30952;50.102;8.584;2022-10-03T19:58:57;100680.0;;;22.9;36.7
45211;BME280;30952;50.102;8.584;2022-10-03T20:03:51;100680.0;;;22.9;36.7
45211;BME280;30952;50.102;8.584;2022-10-03T20:08:52;100680.0;;;22.9;36.7
45211;BME280;30952;50.102;8.584;2022-10-03T20:13:48;100690.0;;;22.9;36.7
45211;BME280;30952;50.102;8.584;2022-10-03T20:18:51;100680.0;;;22.9;36.7
45211;BME280;30952;50.102;8.584;2022-10-03T20:23:51;100670.0;;;22.9;36.7
45211;BME280;30952;50.102;8.584;2022-10-03T20:29:01;100680.0;;;23.0;36.7
45211;BME280;30952;50.102;8.584;2022-10-03T20:33:50;100670.0;;;23.0;36.7
45211;BME280;30952;50.102;8.584;2022-10-03T20:39:00;100670.0;;;23.0;36.7
45211;BME280;30952;50.102;8.584;2022-10-03T20:43:54;100680.0;;;23.0;36.7
45211;BME280;30952;50.102;8.584;2022-10-03T20:49:10;100680.0;;;23.0;36.6
45211;BME280;30952;50.102;8.584;2022-10-03T20:53:51;100680.0;;;23.0;36.6
45211;BME280;30952;50.102;8.584;2022-10-03T20:58:51;100670.0;;;23.0;36.6
45211;BME280;30952;50.102;8.584;2022-10-03T21:03:58;100680.0;;;23.0;36.6
45211;BME280;30952;50.102;8.584;2022-10-03T21:08:52;100680.0;;;23.1;36.6
45211;BME280;30952;50.102;8.584;2022-10-03T21:13:53;100680.0;;;23.1;36.6
45211;BME280;30952;50.102;8.584;2022-10-03T21:18:53;100680.0;;;23.1;36.6
45211;BME280;30952;50.102;8.584;2022-10-03T21:23:54;100670.0;;;23.1;36.6
45211;BME280;30952;50.102;8.584;2022-10-03T21:29:14;100670.0;;;23.1;36.6
45211;BME280;30952;50.102;8.584;2022-10-03T21:33:57;100660.0;;;23.1;36.6
45211;BME280;30952;50.102;8.584;2022-10-03T21:38:51;100670.0;;;23.1;36.6
45211;BME280;30952;50.102;8.584;2022-10-03T21:43:54;100670.0;;;23.1;36.6
45211;BME280;30952;50.102;8.584;2022-10-03T21:49:01;100670.0;;;23.1;36.6
45211;BME280;30952;50.102;8.584;2022-10-03T21:53:59;100660.0;;;23.1;36.6
45211;BME280;30952;50.102;8.584;2022-10-03T21:59:04;100660.0;;;23.1;36.6
45211;BME280;30952;50.102;8.584;2022-10-03T22:03:56;100660.0;;;23.1;36.6
45211;BME280;30952;50.102;8.584;2022-10-03T22:08:52;100660.0;;;23.1;36.5
45211;BME280;30952;50.102;8.584;2022-10-03T22:14:00;100650.0;;;23.1;36.5
45211;BME280;30952;50.102;8.584;2022-10-03T22:19:02;100650.0;;;23.1;36.5
45211;BME280;30952;50.102;8.584;2022-10-03T22:23:57;100640.0;;;23.1;36.5
45211;BME280;30952;50.102;8.584;2022-10-03T22:28:58;100630.0;;;23.1;36.5
45211;BME280;30952;50.102;8.584;2022-10-03T22:34:02;100620.0;;;23.1;36.5
45211;BME280;30952;50.102;8.584;2022-10-03T22:38:54;100620.0;;;23.1;36.4
45211;BME280;30952;50.102;8.584;2022-10-03T22:43:56;100620.0;;;23.1;36.5
45211;BME280;30952;50.102;8.584;2022-10-03T22:49:00;100620.0;;;23.1;36.4
45211;BME280;30952;50.102;8.584;2022-10-03T22:53:58;100610.0;;;23.1;36.4
45211;BME280;30952;50.102;8.584;2022-10-03T22:58:54;100610.0;;;23.1;36.4
45211;BME280;30952;50.102;8.584;2022-10-03T23:03:55;100600.0;;;23.1;36.4
45211;BME280;30952;50.102;8.584;2022-10-03T23:09:01;100600.0;;;23.1;36.4
45211;BME280;30952;50.102;8.584;2022-10-03T23:13:58;100590.0;;;23.1;36.4
45211;BME280;30952;50.102;8.584;2022-10-03T23:19:04;100590.0;;;23.1;36.4
45211;BME280;30952;50.102;8.584;2022-10-03T23:24:02;100590.0;;;23.1;36.4
45211;BME280;30952;50.102;8.584;2022-10-03T23:29:01;100580.0;;;23.1;36.3
45211;BME280;30952;50.102;8.584;2022-10-03T23:33:56;100580.0;;;23.1;36.3
45211;BME280;30952;50.102;8.584;2022-10-03T23:38:57;100580.0;;;23.1;36.3
45211;BME280;30952;50.102;8.584;2022-10-03T23:43:57;100580.0;;;23.1;36.3
45211;BME280;30952;50.102;8.584;2022-10-03T23:48:57;100570.0;;;23.1;36.3
45211;BME280;30952;50.102;8.584;2022-10-03T23:53:57;100580.0;;;23.1;36.3
45211;BME280;30952;50.102;8.584;2022-10-03T23:58:57;100580.0;;;23.1;36.3
